createdAt,value
2023-02-19T00:02:35.683Z,1.48
2023-02-19T00:05:38.361Z,1.60
2023-02-19T00:08:40.721Z,1.20
2023-02-19T00:11:44.053Z,1.10
2023-02-19T00:14:46.415Z,1.60
2023-02-19T00:17:49.065Z,1.52
2023-02-19T00:20:51.396Z,1.35
2023-02-19T00:23:57.628Z,1.00
2023-02-19T00:26:59.945Z,1.23
2023-02-19T00:30:02.688Z,1.10
2023-02-19T00:33:05.127Z,1.23
2023-02-19T00:36:08.073Z,1.10
2023-02-19T00:39:15.690Z,1.00
2023-02-19T00:42:19.801Z,1.35
2023-02-19T00:45:22.207Z,0.90
2023-02-19T00:48:24.925Z,1.00
2023-02-19T00:51:32.845Z,0.98
2023-02-19T00:54:35.509Z,0.90
2023-02-19T00:57:38.924Z,1.00
2023-02-19T01:00:41.590Z,0.73
2023-02-19T01:03:43.929Z,0.93
2023-02-19T01:06:48.685Z,0.90
2023-02-19T01:09:51.163Z,0.90
2023-02-19T01:12:53.885Z,0.90
2023-02-19T01:16:17.045Z,0.90
2023-02-19T01:19:19.684Z,0.80
2023-02-19T01:22:22.112Z,1.08
2023-02-19T01:25:24.738Z,0.98
2023-02-19T01:28:27.215Z,1.15
2023-02-19T01:31:31.068Z,0.90
2023-02-19T01:34:34.202Z,0.80
2023-02-19T01:37:37.432Z,0.93
2023-02-19T01:40:39.749Z,1.00
2023-02-19T01:44:01.346Z,0.80
2023-02-19T01:47:03.712Z,0.87
2023-02-19T01:50:06.729Z,0.73
2023-02-19T01:53:12.105Z,0.90
2023-02-19T01:56:18.603Z,0.90
2023-02-19T01:59:21.702Z,1.20
2023-02-19T02:02:28.519Z,1.20
2023-02-19T02:05:45.614Z,0.50
2023-02-19T02:09:10.492Z,0.85
2023-02-19T02:12:13.369Z,0.75
2023-02-19T02:15:16.924Z,1.00
2023-02-19T02:18:47.397Z,0.80
2023-02-19T02:22:16.641Z,0.77
2023-02-19T02:25:21.873Z,0.90
2023-02-19T02:28:52.693Z,0.95
2023-02-19T02:32:17.375Z,1.15
2023-02-19T02:35:27.343Z,0.93
2023-02-19T02:38:32.922Z,0.70
2023-02-19T02:41:35.429Z,0.77
2023-02-19T02:44:39.809Z,0.60
2023-02-19T02:47:55.257Z,0.80
2023-02-19T02:51:10.274Z,0.80
2023-02-19T02:54:44.621Z,0.60
2023-02-19T02:57:47.701Z,1.00
2023-02-19T03:01:15.240Z,0.95
2023-02-19T03:04:36.138Z,1.20
2023-02-19T03:07:47.011Z,1.03
2023-02-19T03:11:22.402Z,0.80
2023-02-19T03:14:54.666Z,0.68
2023-02-19T03:18:22.696Z,1.00
2023-02-19T03:21:28.447Z,1.20
2023-02-19T03:24:54.016Z,0.90
2023-02-19T03:28:01.548Z,0.73
2023-02-19T03:31:04.478Z,1.00
2023-02-19T03:34:12.305Z,1.00
2023-02-19T03:37:38.796Z,0.90
2023-02-19T03:41:14.398Z,0.60
2023-02-19T03:44:25.495Z,0.80
2023-02-19T03:47:33.993Z,1.20
2023-02-19T03:50:50.228Z,0.82
2023-02-19T03:54:22.704Z,0.60
2023-02-19T03:57:52.131Z,0.70
2023-02-19T04:01:05.717Z,0.62
2023-02-19T04:04:13.252Z,0.60
2023-02-19T04:07:15.762Z,0.85
2023-02-19T04:10:20.705Z,0.70
2023-02-19T04:13:38.809Z,0.90
2023-02-19T04:16:47.531Z,0.90
2023-02-19T04:19:51.923Z,0.93
2023-02-19T04:22:55.522Z,0.90
2023-02-19T04:26:00.260Z,1.10
2023-02-19T04:29:03.112Z,0.80
2023-02-19T04:32:05.654Z,0.62
2023-02-19T04:35:08.831Z,0.70
2023-02-19T04:38:12.273Z,0.88
2023-02-19T04:41:14.872Z,0.80
2023-02-19T04:44:17.231Z,0.70
2023-02-19T04:47:19.862Z,0.60
2023-02-19T04:50:23.217Z,0.82
2023-02-19T04:53:25.855Z,0.80
2023-02-19T04:56:28.236Z,0.88
2023-02-19T04:59:30.950Z,0.63
2023-02-19T05:02:33.272Z,0.70
2023-02-19T05:05:35.957Z,1.10
2023-02-19T05:08:38.926Z,1.45
2023-02-19T05:11:41.628Z,0.90
2023-02-19T05:14:43.971Z,0.97
2023-02-19T05:17:46.575Z,0.82
2023-02-19T05:20:50.492Z,0.80
2023-02-19T05:23:53.149Z,0.90
2023-02-19T05:26:55.609Z,1.08
2023-02-19T05:29:58.218Z,0.87
2023-02-19T05:33:00.536Z,0.90
2023-02-19T05:36:07.187Z,0.98
2023-02-19T05:39:11.511Z,1.23
2023-02-19T05:42:15.498Z,1.10
2023-02-19T05:45:17.817Z,1.20
2023-02-19T05:48:20.469Z,1.15
2023-02-19T05:51:24.885Z,0.95
2023-02-19T05:54:31.489Z,1.00
2023-02-19T05:57:33.802Z,1.60
2023-02-19T06:00:36.481Z,1.60
2023-02-19T06:03:39.112Z,1.23
2023-02-19T06:06:42.413Z,1.92
2023-02-19T06:09:45.154Z,1.40
2023-02-19T06:12:47.461Z,1.83
2023-02-19T06:15:50.075Z,1.70
2023-02-19T06:18:52.639Z,2.03
2023-02-19T06:21:55.330Z,1.92
2023-02-19T06:24:58.204Z,2.03
2023-02-19T06:28:00.945Z,2.35
2023-02-19T06:31:04.363Z,1.50
2023-02-19T06:34:07.025Z,1.87
2023-02-19T06:37:09.402Z,2.10
2023-02-19T06:40:12.049Z,2.10
2023-02-19T06:43:14.399Z,2.17
2023-02-19T06:46:17.242Z,2.03
2023-02-19T06:49:19.617Z,2.22
2023-02-19T06:52:22.259Z,3.00
2023-02-19T06:55:24.662Z,1.87
2023-02-19T06:58:27.928Z,2.10
2023-02-19T07:01:32.167Z,2.77
2023-02-19T07:04:34.973Z,2.10
2023-02-19T07:07:37.350Z,2.30
2023-02-19T07:10:40.019Z,1.85
2023-02-19T07:13:42.448Z,2.60
2023-02-19T07:16:47.378Z,1.70
2023-02-19T07:19:49.859Z,2.05
2023-02-19T07:22:52.566Z,2.35
2023-02-19T07:25:54.912Z,2.12
2023-02-19T07:28:57.572Z,2.78
2023-02-19T07:32:00.053Z,2.67
2023-02-19T07:35:02.702Z,2.12
2023-02-19T07:38:05.059Z,2.35
2023-02-19T07:41:08.038Z,3.05
2023-02-19T07:44:13.527Z,4.03
2023-02-19T07:47:16.123Z,4.57
2023-02-19T07:50:18.587Z,5.82
2023-02-19T07:53:22.427Z,6.55
2023-02-19T07:56:24.893Z,7.47
2023-02-19T07:59:27.588Z,8.27
2023-02-19T08:02:48.790Z,9.27
2023-02-19T08:05:53.817Z,8.57
2023-02-19T08:08:57.537Z,9.65
2023-02-19T08:12:18.899Z,8.20
2023-02-19T08:15:22.500Z,7.20
2023-02-19T08:18:27.331Z,7.80
2023-02-19T08:21:29.655Z,7.68
2023-02-19T08:24:33.941Z,7.55
2023-02-19T08:27:36.423Z,6.97
2023-02-19T08:30:41.107Z,7.55
2023-02-19T08:33:43.557Z,6.40
2023-02-19T08:36:46.191Z,6.90
2023-02-19T08:39:48.561Z,4.35
2023-02-19T08:42:51.925Z,3.83
2023-02-19T08:45:55.312Z,2.40
2023-02-19T08:48:58.312Z,2.13
2023-02-19T08:52:00.764Z,2.72
2023-02-19T08:55:05.335Z,2.95
2023-02-19T08:58:07.892Z,3.10
2023-02-19T09:01:13.415Z,4.12
2023-02-19T09:04:16.052Z,3.90
2023-02-19T09:07:20.357Z,3.60
2023-02-19T09:10:22.772Z,4.12
2023-02-19T09:13:25.421Z,4.32
2023-02-19T09:16:27.864Z,4.30
2023-02-19T09:19:31.089Z,4.40
2023-02-19T09:22:33.518Z,4.65
2023-02-19T09:25:36.193Z,4.25
2023-02-19T09:28:41.734Z,4.35
2023-02-19T09:31:45.913Z,4.37
2023-02-19T09:34:50.000Z,4.60
2023-02-19T09:37:52.726Z,4.57
2023-02-19T09:40:57.625Z,4.80
2023-02-19T09:44:02.789Z,5.05
2023-02-19T09:47:15.458Z,5.45
2023-02-19T09:50:22.950Z,5.47
2023-02-19T09:53:40.280Z,5.28
2023-02-19T09:56:43.200Z,6.03
2023-02-19T09:59:50.289Z,6.18
2023-02-19T10:02:57.285Z,5.70
2023-02-19T10:06:04.849Z,6.10
2023-02-19T10:09:20.224Z,5.70
2023-02-19T10:12:31.346Z,6.10
2023-02-19T10:15:47.989Z,6.47
2023-02-19T10:18:50.932Z,5.97
2023-02-19T10:21:53.351Z,5.33
2023-02-19T10:24:56.608Z,5.45
2023-02-19T10:28:00.314Z,5.10
2023-02-19T10:31:07.551Z,5.18
2023-02-19T10:34:19.569Z,4.72
2023-02-19T10:37:22.411Z,4.47
2023-02-19T10:40:27.780Z,4.47
2023-02-19T10:43:34.006Z,4.35
2023-02-19T10:46:43.588Z,3.50
2023-02-19T10:49:48.889Z,4.20
2023-02-19T10:52:55.741Z,2.80
2023-02-19T10:56:22.457Z,3.83
2023-02-19T10:59:27.289Z,2.37
2023-02-19T11:02:31.942Z,2.83
2023-02-19T11:05:36.652Z,2.75
2023-02-19T11:08:46.852Z,2.03
2023-02-19T11:11:53.710Z,2.50
2023-02-19T11:14:56.782Z,2.25
2023-02-19T11:18:10.686Z,1.77
2023-02-19T11:21:33.594Z,2.28
2023-02-19T11:24:40.494Z,2.10
2023-02-19T11:28:07.275Z,1.50
2023-02-19T11:31:16.113Z,2.17
2023-02-19T11:34:21.364Z,2.47
2023-02-19T11:37:23.722Z,2.20
2023-02-19T11:40:53.364Z,3.33
2023-02-19T11:44:25.823Z,2.60
2023-02-19T11:47:49.612Z,2.60
2023-02-19T11:51:23.635Z,2.47
2023-02-19T11:54:42.669Z,2.70
2023-02-19T11:58:12.073Z,1.97
2023-02-19T12:01:42.391Z,1.95
2023-02-19T12:05:13.164Z,2.60
2023-02-19T12:08:38.415Z,2.35
2023-02-19T12:11:55.778Z,2.62
2023-02-19T12:15:35.581Z,1.80
2023-02-19T12:18:38.169Z,2.53
2023-02-19T12:21:56.046Z,2.50
2023-02-19T12:25:15.299Z,1.70
2023-02-19T12:28:23.729Z,2.00
2023-02-19T12:31:33.026Z,2.47
2023-02-19T12:34:49.421Z,1.70
2023-02-19T12:38:03.774Z,1.77
2023-02-19T12:41:41.670Z,1.75
2023-02-19T12:44:51.648Z,1.80
2023-02-19T12:48:28.125Z,1.80
2023-02-19T12:52:02.065Z,1.80
2023-02-19T12:55:40.553Z,1.70
2023-02-19T12:58:48.900Z,1.98
2023-02-19T13:02:00.170Z,1.30
2023-02-19T13:05:11.060Z,0.80
2023-02-19T13:08:16.095Z,0.70
2023-02-19T13:11:57.401Z,1.00
2023-02-19T13:15:21.082Z,0.90
2023-02-19T13:18:30.220Z,0.80
2023-02-19T13:21:54.808Z,1.10
2023-02-19T13:24:58.665Z,0.80
2023-02-19T13:28:34.401Z,1.08
2023-02-19T13:31:51.518Z,1.12
2023-02-19T13:35:38.017Z,1.27
2023-02-19T13:38:46.984Z,0.90
2023-02-19T13:41:50.738Z,1.12
2023-02-19T13:44:57.888Z,0.95
2023-02-19T13:48:14.554Z,0.88
2023-02-19T13:51:21.709Z,0.95
2023-02-19T13:54:29.634Z,0.70
2023-02-19T13:57:32.547Z,0.50
2023-02-19T14:00:52.200Z,0.65
2023-02-19T14:04:08.868Z,1.10
2023-02-19T14:07:11.238Z,0.82
2023-02-19T14:10:35.032Z,0.67
2023-02-19T14:13:52.360Z,0.82
2023-02-19T14:16:58.703Z,0.80
2023-02-19T14:20:35.935Z,0.88
2023-02-19T14:23:38.653Z,1.27
2023-02-19T14:26:41.797Z,1.20
2023-02-19T14:29:44.998Z,1.00
2023-02-19T14:32:54.562Z,0.88
2023-02-19T14:36:28.903Z,0.45
2023-02-19T14:39:35.200Z,0.65
2023-02-19T14:42:37.911Z,0.40
2023-02-19T14:45:44.938Z,0.80
2023-02-19T14:48:49.822Z,0.62
2023-02-19T14:52:01.231Z,0.50
2023-02-19T14:55:09.867Z,0.50
2023-02-19T14:58:17.536Z,0.50
2023-02-19T15:01:27.671Z,0.52
2023-02-19T15:04:36.543Z,0.55
2023-02-19T15:07:42.034Z,0.52
2023-02-19T15:10:44.956Z,0.57
2023-02-19T15:13:52.444Z,0.60
2023-02-19T15:17:00.678Z,0.73
2023-02-19T15:20:09.429Z,0.70
2023-02-19T15:23:21.034Z,0.57
2023-02-19T15:26:35.649Z,0.80
2023-02-19T15:29:46.008Z,0.50
2023-02-19T15:32:59.946Z,0.60
2023-02-19T15:36:06.646Z,0.60
2023-02-19T15:39:19.482Z,0.50
2023-02-19T15:42:28.470Z,0.55
2023-02-19T15:45:46.313Z,0.50
2023-02-19T15:48:54.497Z,0.50
2023-02-19T15:52:05.807Z,0.70
2023-02-19T15:55:36.610Z,0.70
2023-02-19T15:58:45.620Z,0.80
2023-02-19T16:01:48.391Z,0.80
2023-02-19T16:04:51.134Z,0.50
2023-02-19T16:08:08.631Z,0.80
2023-02-19T16:11:23.528Z,0.50
2023-02-19T16:14:34.918Z,0.70
2023-02-19T16:17:37.725Z,0.80
2023-02-19T16:20:40.430Z,0.70
2023-02-19T16:23:45.448Z,0.60
2023-02-19T16:26:47.932Z,0.70
2023-02-19T16:29:51.805Z,0.80
2023-02-19T16:33:39.414Z,0.60
2023-02-19T16:36:43.531Z,0.50
2023-02-19T16:39:45.947Z,1.33
2023-02-19T16:42:48.536Z,0.75
2023-02-19T16:45:51.008Z,0.47
2023-02-19T16:48:54.556Z,0.37
2023-02-19T16:51:59.833Z,0.50
2023-02-19T16:55:03.784Z,0.52
2023-02-19T16:58:06.251Z,0.50
2023-02-19T17:01:09.392Z,0.82
2023-02-19T17:04:15.291Z,0.30
2023-02-19T17:07:18.819Z,0.40
2023-02-19T17:10:26.417Z,0.55
2023-02-19T17:13:29.913Z,0.20
2023-02-19T17:16:40.286Z,0.50
2023-02-19T17:19:43.172Z,0.40
2023-02-19T17:22:45.546Z,0.70
2023-02-19T17:25:48.145Z,0.60
2023-02-19T17:28:51.080Z,0.75
2023-02-19T17:31:53.912Z,0.50
2023-02-19T17:34:56.375Z,0.57
2023-02-19T17:37:59.074Z,0.55
2023-02-19T17:41:01.398Z,0.57
2023-02-19T17:44:04.161Z,0.47
2023-02-19T17:47:07.678Z,0.60
2023-02-19T17:50:15.256Z,0.50
2023-02-19T17:53:18.371Z,0.50
2023-02-19T17:56:25.685Z,0.60
2023-02-19T17:59:28.089Z,0.75
2023-02-19T18:02:30.923Z,0.60
2023-02-19T18:05:33.627Z,0.50
2023-02-19T18:08:36.052Z,0.60
2023-02-19T18:11:38.662Z,1.10
2023-02-19T18:14:41.103Z,0.50
2023-02-19T18:17:44.153Z,0.90
2023-02-19T18:20:46.511Z,0.63
2023-02-19T18:23:49.163Z,0.60
2023-02-19T18:26:51.434Z,0.60
2023-02-19T18:29:56.189Z,1.27
2023-02-19T18:32:58.549Z,0.95
2023-02-19T18:36:01.415Z,1.00
2023-02-19T18:39:03.813Z,0.70
2023-02-19T18:42:06.545Z,0.70
2023-02-19T18:45:09.438Z,0.85
2023-02-19T18:48:12.671Z,1.40
2023-02-19T18:51:15.016Z,0.83
2023-02-19T18:54:17.696Z,0.80
2023-02-19T18:57:22.018Z,0.93
2023-02-19T19:00:26.583Z,0.93
2023-02-19T19:03:30.174Z,1.10
2023-02-19T19:06:33.348Z,1.17
2023-02-19T19:09:36.031Z,1.00
2023-02-19T19:12:38.701Z,1.00
2023-02-19T19:15:41.514Z,1.08
2023-02-19T19:18:44.385Z,1.20
2023-02-19T19:21:54.549Z,1.10
2023-02-19T19:24:57.173Z,1.40
2023-02-19T19:27:59.652Z,0.95
2023-02-19T19:31:02.869Z,1.33
2023-02-19T19:34:05.474Z,1.00
2023-02-19T19:37:08.234Z,1.20
2023-02-19T19:40:11.202Z,1.30
2023-02-19T19:43:13.856Z,0.88
2023-02-19T19:46:19.903Z,1.27
2023-02-19T19:49:23.391Z,1.80
2023-02-19T19:52:25.721Z,1.53
2023-02-19T19:55:28.376Z,1.00
2023-02-19T19:58:30.757Z,0.90
2023-02-19T20:01:33.405Z,1.40
2023-02-19T20:04:36.046Z,1.75
2023-02-19T20:07:41.602Z,0.90
2023-02-19T20:10:45.517Z,1.05
2023-02-19T20:13:47.861Z,1.48
2023-02-19T20:16:50.695Z,1.40
2023-02-19T20:19:53.569Z,1.90
2023-02-19T20:22:56.233Z,1.70
2023-02-19T20:25:58.641Z,1.62
2023-02-19T20:29:01.339Z,2.10
2023-02-19T20:32:04.100Z,1.55
2023-02-19T20:35:07.255Z,1.95
2023-02-19T20:38:09.581Z,1.80
2023-02-19T20:41:12.668Z,1.75
2023-02-19T20:44:15.889Z,1.60
2023-02-19T20:47:18.657Z,1.77
2023-02-19T20:50:21.713Z,2.10
2023-02-19T20:53:24.662Z,2.00
2023-02-19T20:56:26.993Z,1.70
2023-02-19T20:59:35.093Z,1.25
2023-02-19T21:02:37.623Z,1.67
2023-02-19T21:05:40.761Z,1.37
2023-02-19T21:08:43.132Z,1.40
2023-02-19T21:11:46.047Z,1.42
2023-02-19T21:14:49.338Z,1.15
2023-02-19T21:17:52.095Z,1.40
2023-02-19T21:20:54.535Z,1.80
2023-02-19T21:23:59.232Z,1.20
2023-02-19T21:27:01.673Z,1.50
2023-02-19T21:30:07.922Z,2.08
2023-02-19T21:33:10.329Z,1.45
2023-02-19T21:36:13.294Z,1.75
2023-02-19T21:39:18.676Z,1.57
2023-02-19T21:42:21.374Z,2.05
2023-02-19T21:45:23.995Z,1.60
2023-02-19T21:48:26.794Z,1.87
2023-02-19T21:51:35.237Z,1.70
2023-02-19T21:54:38.000Z,1.40
2023-02-19T21:57:40.468Z,1.15
2023-02-19T22:00:43.070Z,1.35
2023-02-19T22:03:45.686Z,1.08
2023-02-19T22:06:48.008Z,0.90
2023-02-19T22:09:51.816Z,1.17
2023-02-19T22:12:54.219Z,1.23
2023-02-19T22:15:56.902Z,1.12
2023-02-19T22:19:00.242Z,1.02
2023-02-19T22:22:03.202Z,1.30
2023-02-19T22:25:05.785Z,1.40
2023-02-19T22:28:08.460Z,1.00
2023-02-19T22:31:10.833Z,0.90
2023-02-19T22:34:15.548Z,0.77
2023-02-19T22:37:18.010Z,1.15
2023-02-19T22:40:20.761Z,1.20
2023-02-19T22:43:23.066Z,1.35
2023-02-19T22:46:28.640Z,1.70
2023-02-19T22:49:30.977Z,1.27
2023-02-19T22:52:33.566Z,1.30
2023-02-19T22:55:35.926Z,1.53
2023-02-19T22:58:38.577Z,1.12
2023-02-19T23:01:41.703Z,1.45
2023-02-19T23:04:44.450Z,1.48
2023-02-19T23:07:46.797Z,1.10
2023-02-19T23:10:50.199Z,1.90
2023-02-19T23:13:52.528Z,1.42
2023-02-19T23:16:55.207Z,1.37
2023-02-19T23:19:57.543Z,1.30
2023-02-19T23:23:00.260Z,1.27
2023-02-19T23:26:03.840Z,1.23
2023-02-19T23:29:06.441Z,1.27
2023-02-19T23:32:08.908Z,1.52
2023-02-19T23:35:11.612Z,1.30
2023-02-19T23:38:13.947Z,1.55
2023-02-19T23:41:17.753Z,1.23
2023-02-19T23:44:21.844Z,1.20
2023-02-19T23:47:26.561Z,1.60
2023-02-19T23:50:28.960Z,1.00
2023-02-19T23:53:31.549Z,1.60
2023-02-19T23:56:34.432Z,1.17
2023-02-19T23:59:37.126Z,1.30
